METAR Data
IDs: Format: Raw Decoded Include TAF

Data at: 1057 UTC 28 Sep 2021

METAR for:K6B9 (Skaneateles Arpt, NY, US)
Text:K6B9 281055Z AUTO 01006KT 10SM OVC008 14/14 A2984 RMK AO2
Temperature: 14.0°C ( 57°F)
Dewpoint: 14.0°C ( 57°F) [RH = 100%]
Pressure (altimeter):29.84 inches Hg (1010.6 mb)
Winds:from the N (10 degrees) at 7 MPH (6 knots; 3.1 m/s)
Visibility:10 or more sm (16+ km)
Ceiling:800 feet AGL
Clouds: overcast cloud deck at 800 feet AGL
QC Flag:automated observation with no human augmentation
Text:K6B9 281035Z AUTO VRB05KT 10SM SCT009 BKN065 OVC090 15/14 A2984 RMK AO2
Temperature: 15.0°C ( 59°F)
Dewpoint: 14.0°C ( 57°F) [RH = 94%]
Pressure (altimeter):29.84 inches Hg (1010.6 mb)
Winds:variable direction winds at 6 MPH (5 knots; 2.6 m/s)
Visibility:10 or more sm (16+ km)
Ceiling:6500 feet AGL
Clouds: scattered clouds at 900 feet AGL, broken clouds at 6500 feet AGL, overcast cloud deck at 9000 feet AGL
QC Flag:automated observation with no human augmentation
Text:K6B9 281015Z AUTO VRB04G10KT 10SM FEW032 OVC065 15/14 A2983 RMK AO2
Temperature: 15.0°C ( 59°F)
Dewpoint: 14.0°C ( 57°F) [RH = 94%]
Pressure (altimeter):29.83 inches Hg (1010.2 mb)
Winds:variable direction winds at 5 MPH (4 knots; 2.1 m/s) gusting to 12 MPH (10 knots; 5.1 m/s)
Visibility:10 or more sm (16+ km)
Ceiling:6500 feet AGL
Clouds: few clouds at 3200 feet AGL, overcast cloud deck at 6500 feet AGL
QC Flag:automated observation with no human augmentation
Text:K6B9 280955Z AUTO 01004G10KT 10SM BKN009 BKN032 OVC065 15/14 A2982 RMK AO2
Temperature: 15.0°C ( 59°F)
Dewpoint: 14.0°C ( 57°F) [RH = 94%]
Pressure (altimeter):29.82 inches Hg (1009.9 mb)
Winds:from the N (10 degrees) at 5 MPH (4 knots; 2.1 m/s) gusting to 12 MPH (10 knots; 5.1 m/s)
Visibility:10 or more sm (16+ km)
Ceiling:900 feet AGL
Clouds: broken clouds at 900 feet AGL, broken clouds at 3200 feet AGL, overcast cloud deck at 6500 feet AGL
QC Flag:automated observation with no human augmentation
Text:K6B9 280935Z AUTO VRB05KT 10SM OVC008 16/16 A2982 RMK AO2
Temperature: 16.0°C ( 61°F)
Dewpoint: 16.0°C ( 61°F) [RH = 100%]
Pressure (altimeter):29.82 inches Hg (1009.9 mb)
Winds:variable direction winds at 6 MPH (5 knots; 2.6 m/s)
Visibility:10 or more sm (16+ km)
Ceiling:800 feet AGL
Clouds: overcast cloud deck at 800 feet AGL
QC Flag:automated observation with no human augmentation
Text:K6B9 280915Z AUTO VRB05KT 10SM BKN008 OVC011 17/17 A2980 RMK AO2
Temperature: 17.0°C ( 63°F)
Dewpoint: 17.0°C ( 63°F) [RH = 100%]
Pressure (altimeter):29.80 inches Hg (1009.2 mb)
Winds:variable direction winds at 6 MPH (5 knots; 2.6 m/s)
Visibility:10 or more sm (16+ km)
Ceiling:800 feet AGL
Clouds: broken clouds at 800 feet AGL, overcast cloud deck at 1100 feet AGL
QC Flag:automated observation with no human augmentation
Text:K6B9 280855Z AUTO VRB04KT 10SM OVC011 17/17 A2981 RMK AO2
Temperature: 17.0°C ( 63°F)
Dewpoint: 17.0°C ( 63°F) [RH = 100%]
Pressure (altimeter):29.81 inches Hg (1009.6 mb)
Winds:variable direction winds at 5 MPH (4 knots; 2.1 m/s)
Visibility:10 or more sm (16+ km)
Ceiling:1100 feet AGL
Clouds: overcast cloud deck at 1100 feet AGL
QC Flag:automated observation with no human augmentation
Text:K6B9 280835Z AUTO 27005KT 10SM SCT010 BKN025 OVC070 17/17 A2980 RMK AO2
Temperature: 17.0°C ( 63°F)
Dewpoint: 17.0°C ( 63°F) [RH = 100%]
Pressure (altimeter):29.80 inches Hg (1009.2 mb)
Winds:from the W (270 degrees) at 6 MPH (5 knots; 2.6 m/s)
Visibility:10 or more sm (16+ km)
Ceiling:2500 feet AGL
Clouds: scattered clouds at 1000 feet AGL, broken clouds at 2500 feet AGL, overcast cloud deck at 7000 feet AGL
QC Flag:automated observation with no human augmentation
Text:K6B9 280815Z AUTO 24005KT 18/17 A2980 RMK AO2
Temperature: 18.0°C ( 64°F)
Dewpoint: 17.0°C ( 63°F) [RH = 94%]
Pressure (altimeter):29.80 inches Hg (1009.2 mb)
Winds:from the WSW (240 degrees) at 6 MPH (5 knots; 2.6 m/s)
QC Flag:automated observation with no human augmentation
Text:K6B9 280755Z AUTO 26005KT 10SM BKN020 OVC050 18/17 A2980 RMK AO2
Temperature: 18.0°C ( 64°F)
Dewpoint: 17.0°C ( 63°F) [RH = 94%]
Pressure (altimeter):29.80 inches Hg (1009.2 mb)
Winds:from the W (260 degrees) at 6 MPH (5 knots; 2.6 m/s)
Visibility:10 or more sm (16+ km)
Ceiling:2000 feet AGL
Clouds: broken clouds at 2000 feet AGL, overcast cloud deck at 5000 feet AGL
QC Flag:automated observation with no human augmentation
Text:K6B9 280735Z AUTO 27006KT 10SM FEW020 BKN050 OVC060 18/17 A2980 RMK AO2
Temperature: 18.0°C ( 64°F)
Dewpoint: 17.0°C ( 63°F) [RH = 94%]
Pressure (altimeter):29.80 inches Hg (1009.2 mb)
Winds:from the W (270 degrees) at 7 MPH (6 knots; 3.1 m/s)
Visibility:10 or more sm (16+ km)
Ceiling:5000 feet AGL
Clouds: few clouds at 2000 feet AGL, broken clouds at 5000 feet AGL, overcast cloud deck at 6000 feet AGL
QC Flag:automated observation with no human augmentation
Text:K6B9 280715Z AUTO 26006KT 10SM FEW047 OVC055 18/17 A2980 RMK AO2
Temperature: 18.0°C ( 64°F)
Dewpoint: 17.0°C ( 63°F) [RH = 94%]
Pressure (altimeter):29.80 inches Hg (1009.2 mb)
Winds:from the W (260 degrees) at 7 MPH (6 knots; 3.1 m/s)
Visibility:10 or more sm (16+ km)
Ceiling:5500 feet AGL
Clouds: few clouds at 4700 feet AGL, overcast cloud deck at 5500 feet AGL
QC Flag:automated observation with no human augmentation
Text:K6B9 280655Z AUTO 26006KT 10SM SCT034 BKN046 OVC070 18/17 A2980 RMK AO2
Temperature: 18.0°C ( 64°F)
Dewpoint: 17.0°C ( 63°F) [RH = 94%]
Pressure (altimeter):29.80 inches Hg (1009.2 mb)
Winds:from the W (260 degrees) at 7 MPH (6 knots; 3.1 m/s)
Visibility:10 or more sm (16+ km)
Ceiling:4600 feet AGL
Clouds: scattered clouds at 3400 feet AGL, broken clouds at 4600 feet AGL, overcast cloud deck at 7000 feet AGL
QC Flag:automated observation with no human augmentation
Text:K6B9 280635Z AUTO 25004KT 10SM SCT035 SCT047 OVC065 19/17 A2980 RMK AO2
Temperature: 19.0°C ( 66°F)
Dewpoint: 17.0°C ( 63°F) [RH = 88%]
Pressure (altimeter):29.80 inches Hg (1009.2 mb)
Winds:from the WSW (250 degrees) at 5 MPH (4 knots; 2.1 m/s)
Visibility:10 or more sm (16+ km)
Ceiling:6500 feet AGL
Clouds: scattered clouds at 3500 feet AGL, scattered clouds at 4700 feet AGL, overcast cloud deck at 6500 feet AGL
QC Flag:automated observation with no human augmentation
Text:K6B9 280555Z AUTO 25004KT 10SM BKN032 OVC047 19/17 A2980 RMK AO2
Temperature: 19.0°C ( 66°F)
Dewpoint: 17.0°C ( 63°F) [RH = 88%]
Pressure (altimeter):29.80 inches Hg (1009.2 mb)
Winds:from the WSW (250 degrees) at 5 MPH (4 knots; 2.1 m/s)
Visibility:10 or more sm (16+ km)
Ceiling:3200 feet AGL
Clouds: broken clouds at 3200 feet AGL, overcast cloud deck at 4700 feet AGL
QC Flag:automated observation with no human augmentation
Text:K6B9 280535Z AUTO 00000KT 10SM SCT033 BKN039 OVC047 19/17 A2980 RMK AO2
Temperature: 19.0°C ( 66°F)
Dewpoint: 17.0°C ( 63°F) [RH = 88%]
Pressure (altimeter):29.80 inches Hg (1009.2 mb)
Winds:calm
Visibility:10 or more sm (16+ km)
Ceiling:3900 feet AGL
Clouds: scattered clouds at 3300 feet AGL, broken clouds at 3900 feet AGL, overcast cloud deck at 4700 feet AGL
QC Flag:automated observation with no human augmentation
Text:K6B9 280515Z AUTO 00000KT 10SM BKN040 OVC050 19/16 A2980 RMK AO2
Temperature: 19.0°C ( 66°F)
Dewpoint: 16.0°C ( 61°F) [RH = 83%]
Pressure (altimeter):29.80 inches Hg (1009.2 mb)
Winds:calm
Visibility:10 or more sm (16+ km)
Ceiling:4000 feet AGL
Clouds: broken clouds at 4000 feet AGL, overcast cloud deck at 5000 feet AGL
QC Flag:automated observation with no human augmentation
Text:K6B9 280455Z AUTO 24003KT 10SM OVC049 19/16 A2980 RMK AO2
Temperature: 19.0°C ( 66°F)
Dewpoint: 16.0°C ( 61°F) [RH = 83%]
Pressure (altimeter):29.80 inches Hg (1009.2 mb)
Winds:from the WSW (240 degrees) at 3 MPH (3 knots; 1.5 m/s)
Visibility:10 or more sm (16+ km)
Ceiling:4900 feet AGL
Clouds: overcast cloud deck at 4900 feet AGL
QC Flag:automated observation with no human augmentation
Text:K6B9 280435Z AUTO 24004KT 10SM OVC048 20/16 A2980 RMK AO2
Temperature: 20.0°C ( 68°F)
Dewpoint: 16.0°C ( 61°F) [RH = 78%]
Pressure (altimeter):29.80 inches Hg (1009.2 mb)
Winds:from the WSW (240 degrees) at 5 MPH (4 knots; 2.1 m/s)
Visibility:10 or more sm (16+ km)
Ceiling:4800 feet AGL
Clouds: overcast cloud deck at 4800 feet AGL
QC Flag:automated observation with no human augmentation
Text:K6B9 280415Z AUTO 24003KT 10SM OVC046 20/16 A2980 RMK AO2
Temperature: 20.0°C ( 68°F)
Dewpoint: 16.0°C ( 61°F) [RH = 78%]
Pressure (altimeter):29.80 inches Hg (1009.2 mb)
Winds:from the WSW (240 degrees) at 3 MPH (3 knots; 1.5 m/s)
Visibility:10 or more sm (16+ km)
Ceiling:4600 feet AGL
Clouds: overcast cloud deck at 4600 feet AGL
QC Flag:automated observation with no human augmentation
Text:K6B9 280355Z AUTO 23004KT 10SM OVC045 20/16 A2980 RMK AO2
Temperature: 20.0°C ( 68°F)
Dewpoint: 16.0°C ( 61°F) [RH = 78%]
Pressure (altimeter):29.80 inches Hg (1009.2 mb)
Winds:from the SW (230 degrees) at 5 MPH (4 knots; 2.1 m/s)
Visibility:10 or more sm (16+ km)
Ceiling:4500 feet AGL
Clouds: overcast cloud deck at 4500 feet AGL
QC Flag:automated observation with no human augmentation
Text:K6B9 280335Z AUTO 21004KT 10SM OVC046 19/16 A2980 RMK AO2
Temperature: 19.0°C ( 66°F)
Dewpoint: 16.0°C ( 61°F) [RH = 83%]
Pressure (altimeter):29.80 inches Hg (1009.2 mb)
Winds:from the SSW (210 degrees) at 5 MPH (4 knots; 2.1 m/s)
Visibility:10 or more sm (16+ km)
Ceiling:4600 feet AGL
Clouds: overcast cloud deck at 4600 feet AGL
QC Flag:automated observation with no human augmentation
Text:K6B9 280315Z AUTO 21004KT 10SM BKN047 OVC055 19/16 A2980 RMK AO2
Temperature: 19.0°C ( 66°F)
Dewpoint: 16.0°C ( 61°F) [RH = 83%]
Pressure (altimeter):29.80 inches Hg (1009.2 mb)
Winds:from the SSW (210 degrees) at 5 MPH (4 knots; 2.1 m/s)
Visibility:10 or more sm (16+ km)
Ceiling:4700 feet AGL
Clouds: broken clouds at 4700 feet AGL, overcast cloud deck at 5500 feet AGL
QC Flag:automated observation with no human augmentation
Text:K6B9 280255Z AUTO VRB03KT 10SM BKN048 OVC070 19/16 A2981 RMK AO2
Temperature: 19.0°C ( 66°F)
Dewpoint: 16.0°C ( 61°F) [RH = 83%]
Pressure (altimeter):29.81 inches Hg (1009.6 mb)
Winds:variable direction winds at 3 MPH (3 knots; 1.5 m/s)
Visibility:10 or more sm (16+ km)
Ceiling:4800 feet AGL
Clouds: broken clouds at 4800 feet AGL, overcast cloud deck at 7000 feet AGL
QC Flag:automated observation with no human augmentation
Text:K6B9 280235Z AUTO 00000KT 10SM BKN050 OVC065 18/17 A2981 RMK AO2
Temperature: 18.0°C ( 64°F)
Dewpoint: 17.0°C ( 63°F) [RH = 94%]
Pressure (altimeter):29.81 inches Hg (1009.6 mb)
Winds:calm
Visibility:10 or more sm (16+ km)
Ceiling:5000 feet AGL
Clouds: broken clouds at 5000 feet AGL, overcast cloud deck at 6500 feet AGL
QC Flag:automated observation with no human augmentation
Text:K6B9 280215Z AUTO 00000KT 10SM OVC050 18/17 A2981 RMK AO2
Temperature: 18.0°C ( 64°F)
Dewpoint: 17.0°C ( 63°F) [RH = 94%]
Pressure (altimeter):29.81 inches Hg (1009.6 mb)
Winds:calm
Visibility:10 or more sm (16+ km)
Ceiling:5000 feet AGL
Clouds: overcast cloud deck at 5000 feet AGL
QC Flag:automated observation with no human augmentation
Text:K6B9 280155Z AUTO 00000KT 10SM BKN050 OVC055 18/17 A2981 RMK AO2
Temperature: 18.0°C ( 64°F)
Dewpoint: 17.0°C ( 63°F) [RH = 94%]
Pressure (altimeter):29.81 inches Hg (1009.6 mb)
Winds:calm
Visibility:10 or more sm (16+ km)
Ceiling:5000 feet AGL
Clouds: broken clouds at 5000 feet AGL, overcast cloud deck at 5500 feet AGL
QC Flag:automated observation with no human augmentation
Text:K6B9 280135Z AUTO 00000KT 10SM OVC050 18/18 A2982 RMK AO2
Temperature: 18.0°C ( 64°F)
Dewpoint: 18.0°C ( 64°F) [RH = 100%]
Pressure (altimeter):29.82 inches Hg (1009.9 mb)
Winds:calm
Visibility:10 or more sm (16+ km)
Ceiling:5000 feet AGL
Clouds: overcast cloud deck at 5000 feet AGL
QC Flag:automated observation with no human augmentation
Text:K6B9 280115Z AUTO 00000KT 9SM BKN050 OVC060 18/18 A2982 RMK AO2
Temperature: 18.0°C ( 64°F)
Dewpoint: 18.0°C ( 64°F) [RH = 100%]
Pressure (altimeter):29.82 inches Hg (1009.9 mb)
Winds:calm
Visibility: 9 sm ( 14 km)
Ceiling:5000 feet AGL
Clouds: broken clouds at 5000 feet AGL, overcast cloud deck at 6000 feet AGL
QC Flag:automated observation with no human augmentation
Text:K6B9 280055Z AUTO 00000KT 10SM OVC055 18/18 A2982 RMK AO2
Temperature: 18.0°C ( 64°F)
Dewpoint: 18.0°C ( 64°F) [RH = 100%]
Pressure (altimeter):29.82 inches Hg (1009.9 mb)
Winds:calm
Visibility:10 or more sm (16+ km)
Ceiling:5500 feet AGL
Clouds: overcast cloud deck at 5500 feet AGL
QC Flag:automated observation with no human augmentation
Text:K6B9 280035Z AUTO 00000KT 10SM OVC055 18/18 A2982 RMK AO2
Temperature: 18.0°C ( 64°F)
Dewpoint: 18.0°C ( 64°F) [RH = 100%]
Pressure (altimeter):29.82 inches Hg (1009.9 mb)
Winds:calm
Visibility:10 or more sm (16+ km)
Ceiling:5500 feet AGL
Clouds: overcast cloud deck at 5500 feet AGL
QC Flag:automated observation with no human augmentation
Text:K6B9 280015Z AUTO 00000KT 10SM OVC055 18/18 A2981 RMK AO2
Temperature: 18.0°C ( 64°F)
Dewpoint: 18.0°C ( 64°F) [RH = 100%]
Pressure (altimeter):29.81 inches Hg (1009.6 mb)
Winds:calm
Visibility:10 or more sm (16+ km)
Ceiling:5500 feet AGL
Clouds: overcast cloud deck at 5500 feet AGL
QC Flag:automated observation with no human augmentation
Text:K6B9 272355Z AUTO 00000KT 10SM OVC060 18/18 A2981 RMK AO2
Temperature: 18.0°C ( 64°F)
Dewpoint: 18.0°C ( 64°F) [RH = 100%]
Pressure (altimeter):29.81 inches Hg (1009.6 mb)
Winds:calm
Visibility:10 or more sm (16+ km)
Ceiling:6000 feet AGL
Clouds: overcast cloud deck at 6000 feet AGL
QC Flag:automated observation with no human augmentation
Text:K6B9 272335Z AUTO 00000KT 10SM BKN060 OVC070 19/17 A2980 RMK AO2
Temperature: 19.0°C ( 66°F)
Dewpoint: 17.0°C ( 63°F) [RH = 88%]
Pressure (altimeter):29.80 inches Hg (1009.2 mb)
Winds:calm
Visibility:10 or more sm (16+ km)
Ceiling:6000 feet AGL
Clouds: broken clouds at 6000 feet AGL, overcast cloud deck at 7000 feet AGL
QC Flag:automated observation with no human augmentation
Text:K6B9 272315Z AUTO 00000KT 10SM SCT060 BKN075 OVC085 19/18 A2980 RMK AO2
Temperature: 19.0°C ( 66°F)
Dewpoint: 18.0°C ( 64°F) [RH = 94%]
Pressure (altimeter):29.80 inches Hg (1009.2 mb)
Winds:calm
Visibility:10 or more sm (16+ km)
Ceiling:7500 feet AGL
Clouds: scattered clouds at 6000 feet AGL, broken clouds at 7500 feet AGL, overcast cloud deck at 8500 feet AGL
QC Flag:automated observation with no human augmentation